Time;durP1;ratioP1;P1;durP2;ratioP2;P2;SDS_P1;SDS_P2;PMS_P1;PMS_P2;Temp;Humidity;BMP_temperature;BMP_pressure;BME280_temperature;BME280_humidity;BME280_pressure;Samples;Min_cycle;Max_cycle;Signal;HPM_P1;HPM_P2
2022/04/24 00:01:02;;;;;;;;;;;19.80;56.30;;;;;;5005980;28;19969;-67
2022/04/24 00:03:28;;;;;;;;;;;19.80;56.40;;;;;;5000891;28;20468;-65
2022/04/24 00:05:53;;;;;;;;;;;19.80;56.30;;;;;;5017233;28;19910;-65
2022/04/24 00:08:18;;;;;;;;;;;19.70;56.20;;;;;;4996938;28;20022;-70
2022/04/24 00:10:45;;;;;;;;;;;19.70;56.20;;;;;;5005079;28;19940;-67
2022/04/24 00:13:11;;;;;;;;;;;19.80;56.30;;;;;;5006430;28;19982;-64
2022/04/24 00:15:37;;;;;;;;;;;19.80;56.30;;;;;;4989148;28;19913;-68
2022/04/24 00:18:02;;;;;;;;;;;19.80;56.30;;;;;;4999963;28;19939;-67
2022/04/24 00:20:28;;;;;;;;;;;19.70;56.20;;;;;;5005916;28;19921;-66
2022/04/24 00:22:53;;;;;;;;;;;19.70;56.20;;;;;;5006101;28;19960;-67
2022/04/24 00:25:19;;;;;;;;;;;19.70;56.20;;;;;;5006933;28;19956;-68
2022/04/24 00:27:44;;;;;;;;;;;19.70;56.20;;;;;;5005953;28;19910;-66
2022/04/24 00:30:10;;;;;;;;;;;19.70;56.20;;;;;;5005955;28;19988;-66
2022/04/24 00:32:36;;;;;;;;;;;19.70;56.20;;;;;;5006035;28;20328;-69
2022/04/24 00:35:01;;;;;;;;;;;19.70;56.10;;;;;;5005961;28;19917;-63
2022/04/24 00:37:28;;;;;;;;;;;19.70;56.10;;;;;;4992231;28;19916;-68
2022/04/24 00:39:53;;;;;;;;;;;19.70;56.20;;;;;;5005002;28;19921;-66
2022/04/24 00:42:19;;;;;;;;;;;19.70;56.20;;;;;;5005956;28;19945;-68
2022/04/24 00:44:44;;;;;;;;;;;19.70;56.20;;;;;;5005548;28;19916;-67
2022/04/24 00:47:11;;;;;;;;;;;19.80;56.20;;;;;;4998610;28;20933;-64
2022/04/24 00:49:37;;;;;;;;;;;19.70;56.20;;;;;;5005505;28;19917;-66
2022/04/24 00:52:03;;;;;;;;;;;19.70;56.20;;;;;;5004559;28;19939;-69
2022/04/24 00:54:28;;;;;;;;;;;19.70;56.20;;;;;;5005190;28;19932;-69
2022/04/24 00:56:53;;;;;;;;;;;19.70;56.20;;;;;;5005452;28;19996;-67
2022/04/24 00:59:19;;;;;;;;;;;19.70;56.10;;;;;;5008779;28;19919;-68
2022/04/24 01:01:45;;;;;;;;;;;19.80;56.20;;;;;;5006592;28;20365;-67
2022/04/24 01:04:10;;;;;;;;;;;19.70;56.20;;;;;;4990016;28;19949;-66
2022/04/24 01:06:37;;;;;;;;;;;19.70;56.20;;;;;;4987822;28;19921;-68
2022/04/24 01:09:12;;;;;;;;;;;19.70;56.20;;;;;;4999408;28;20387;-68
2022/04/24 01:11:38;;;;;;;;;;;19.70;56.20;;;;;;5005170;28;19924;-70
2022/04/24 01:14:04;;;;;;;;;;;19.70;56.20;;;;;;4991899;28;20005;-65
2022/04/24 01:16:29;;;;;;;;;;;19.70;56.10;;;;;;5004953;28;19918;-67
2022/04/24 01:18:54;;;;;;;;;;;19.70;56.10;;;;;;5004607;28;19917;-68
2022/04/24 01:21:20;;;;;;;;;;;19.70;56.10;;;;;;5004426;28;20552;-64
2022/04/24 01:23:45;;;;;;;;;;;19.70;56.10;;;;;;5005216;28;19949;-64
2022/04/24 01:26:12;;;;;;;;;;;19.70;56.10;;;;;;5004517;28;19975;-68
2022/04/24 01:28:38;;;;;;;;;;;19.70;56.00;;;;;;4992417;28;19924;-63
2022/04/24 01:31:03;;;;;;;;;;;19.70;56.00;;;;;;5004960;28;19914;-71
2022/04/24 01:33:28;;;;;;;;;;;19.70;56.10;;;;;;5005335;28;19914;-65
2022/04/24 01:35:54;;;;;;;;;;;19.70;56.10;;;;;;5005736;28;19914;-65
2022/04/24 01:38:20;;;;;;;;;;;19.70;56.00;;;;;;5004615;28;19909;-70
2022/04/24 01:40:45;;;;;;;;;;;19.70;56.00;;;;;;5004384;28;20004;-66
2022/04/24 01:43:10;;;;;;;;;;;19.70;56.00;;;;;;5005329;28;19953;-64
2022/04/24 01:45:36;;;;;;;;;;;19.70;56.00;;;;;;5004416;28;19913;-66
2022/04/24 01:48:01;;;;;;;;;;;19.70;56.00;;;;;;4987528;28;20279;-69
2022/04/24 01:50:27;;;;;;;;;;;19.70;56.00;;;;;;5004296;28;19967;-66
2022/04/24 01:52:52;;;;;;;;;;;19.70;56.00;;;;;;5004758;28;19913;-65
2022/04/24 01:55:18;;;;;;;;;;;19.60;56.00;;;;;;5004905;28;19909;-71
2022/04/24 01:57:43;;;;;;;;;;;19.70;56.00;;;;;;4987588;28;20349;-68
2022/04/24 02:00:09;;;;;;;;;;;19.70;56.00;;;;;;5004234;28;20335;-67
2022/04/24 02:02:35;;;;;;;;;;;19.60;55.90;;;;;;5004381;28;19925;-65
2022/04/24 02:05:00;;;;;;;;;;;19.70;55.90;;;;;;5005221;28;19921;-70
2022/04/24 02:07:26;;;;;;;;;;;19.70;55.90;;;;;;5005932;28;19914;-63
2022/04/24 02:09:52;;;;;;;;;;;19.70;56.50;;;;;;5005453;28;19910;-63
2022/04/24 02:12:17;;;;;;;;;;;19.60;55.90;;;;;;5006328;28;19932;-70
2022/04/24 02:14:42;;;;;;;;;;;19.70;56.00;;;;;;5006395;28;19960;-68
2022/04/24 02:17:08;;;;;;;;;;;19.70;55.90;;;;;;5004603;28;20377;-65
2022/04/24 02:19:33;;;;;;;;;;;19.60;55.90;;;;;;4995132;28;19913;-65
2022/04/24 02:21:59;;;;;;;;;;;19.70;55.90;;;;;;5003309;28;19923;-68
2022/04/24 02:24:24;;;;;;;;;;;19.70;55.90;;;;;;5005002;28;19957;-64
2022/04/24 02:26:50;;;;;;;;;;;19.60;55.90;;;;;;5004853;28;20280;-67
2022/04/24 02:29:15;;;;;;;;;;;19.60;55.90;;;;;;5004393;28;19956;-68
2022/04/24 02:31:41;;;;;;;;;;;19.60;55.90;;;;;;5004415;28;19928;-65
2022/04/24 02:34:07;;;;;;;;;;;19.60;55.90;;;;;;5001894;28;19968;-65
2022/04/24 02:36:32;;;;;;;;;;;19.60;55.80;;;;;;5004340;28;19914;-66
2022/04/24 02:38:57;;;;;;;;;;;19.60;55.90;;;;;;5003314;28;20368;-64
2022/04/24 02:41:25;;;;;;;;;;;19.60;55.80;;;;;;5005300;28;19964;-64
2022/04/24 02:43:50;;;;;;;;;;;19.60;55.80;;;;;;5004871;28;19913;-64
2022/04/24 02:46:15;;;;;;;;;;;19.60;55.90;;;;;;5004339;28;20476;-67
2022/04/24 02:48:41;;;;;;;;;;;19.60;55.80;;;;;;5003867;28;19917;-63
2022/04/24 02:51:07;;;;;;;;;;;19.60;55.80;;;;;;5004878;28;19919;-66
2022/04/24 02:53:32;;;;;;;;;;;19.70;55.80;;;;;;5005165;28;19909;-66
2022/04/24 02:55:57;;;;;;;;;;;19.60;55.70;;;;;;5005032;28;20254;-65
2022/04/24 02:58:23;;;;;;;;;;;19.60;55.70;;;;;;5005309;28;19925;-66
2022/04/24 03:00:52;;;;;;;;;;;19.60;55.70;;;;;;5003991;28;20418;-68
2022/04/24 03:03:20;;;;;;;;;;;19.60;55.70;;;;;;5006566;28;19945;-69
2022/04/24 03:05:46;;;;;;;;;;;19.60;55.70;;;;;;5008601;28;19933;-69
2022/04/24 03:08:12;;;;;;;;;;;19.60;55.60;;;;;;5008668;28;19924;-70
2022/04/24 03:10:38;;;;;;;;;;;19.60;55.60;;;;;;5007505;28;20003;-68
2022/04/24 03:13:03;;;;;;;;;;;19.60;55.50;;;;;;5007549;28;19914;-68
2022/04/24 03:15:29;;;;;;;;;;;19.60;55.50;;;;;;5001111;28;20320;-71
2022/04/24 03:17:54;;;;;;;;;;;19.60;55.50;;;;;;4991349;28;19945;-70
2022/04/24 03:20:20;;;;;;;;;;;19.50;55.50;;;;;;5007793;28;19914;-67
2022/04/24 03:22:45;;;;;;;;;;;19.60;55.50;;;;;;5007528;28;19979;-66
2022/04/24 03:25:11;;;;;;;;;;;19.50;55.40;;;;;;5007439;28;19939;-64
2022/04/24 03:27:37;;;;;;;;;;;19.50;55.40;;;;;;5007499;28;19914;-71
2022/04/24 03:30:02;;;;;;;;;;;19.60;55.50;;;;;;4990925;28;20335;-64
2022/04/24 03:32:33;;;;;;;;;;;19.50;55.40;;;;;;4979784;28;19921;-65
2022/04/24 03:34:59;;;;;;;;;;;19.50;55.40;;;;;;5007212;28;20592;-69
2022/04/24 03:37:25;;;;;;;;;;;19.60;55.40;;;;;;5007002;28;19957;-64
2022/04/24 03:39:50;;;;;;;;;;;19.60;55.40;;;;;;5006058;28;19924;-67
2022/04/24 03:42:16;;;;;;;;;;;19.50;55.30;;;;;;5007721;28;19969;-66
2022/04/24 03:44:41;;;;;;;;;;;19.50;55.30;;;;;;5007152;28;20385;-69
2022/04/24 03:47:07;;;;;;;;;;;19.60;55.40;;;;;;5007201;28;19952;-66
2022/04/24 03:49:32;;;;;;;;;;;19.50;55.30;;;;;;5005299;28;20000;-68
2022/04/24 03:51:57;;;;;;;;;;;19.60;55.30;;;;;;5006472;28;19956;-67
2022/04/24 03:54:23;;;;;;;;;;;19.60;55.40;;;;;;5006860;28;20364;-65
2022/04/24 03:56:48;;;;;;;;;;;19.50;55.30;;;;;;5006874;28;20676;-63
2022/04/24 03:59:14;;;;;;;;;;;19.50;55.30;;;;;;5006057;28;19920;-63
2022/04/24 04:01:39;;;;;;;;;;;19.60;55.30;;;;;;4994694;28;19956;-68
2022/04/24 04:04:05;;;;;;;;;;;19.60;55.30;;;;;;5005147;28;19914;-67
2022/04/24 04:06:30;;;;;;;;;;;19.50;55.30;;;;;;5005484;28;20281;-62
2022/04/24 04:08:55;;;;;;;;;;;19.50;55.20;;;;;;5006048;28;19910;-70
2022/04/24 04:11:21;;;;;;;;;;;19.50;55.20;;;;;;5006211;28;19921;-65
2022/04/24 04:13:46;;;;;;;;;;;19.50;55.20;;;;;;5006304;28;20446;-67
2022/04/24 04:16:12;;;;;;;;;;;19.50;55.20;;;;;;5006056;28;19914;-64
2022/04/24 04:18:38;;;;;;;;;;;19.50;55.20;;;;;;4988033;28;19913;-67
2022/04/24 04:21:03;;;;;;;;;;;19.50;55.20;;;;;;5005720;28;19917;-66
2022/04/24 04:23:28;;;;;;;;;;;19.50;55.20;;;;;;5005562;28;19936;-66
2022/04/24 04:25:54;;;;;;;;;;;19.50;55.20;;;;;;5006720;28;19921;-64
2022/04/24 04:28:19;;;;;;;;;;;19.50;55.20;;;;;;5005897;28;20575;-66
2022/04/24 04:30:45;;;;;;;;;;;19.50;55.20;;;;;;4988680;28;20319;-64
2022/04/24 04:33:10;;;;;;;;;;;19.50;55.20;;;;;;5006275;28;19917;-66
2022/04/24 04:35:36;;;;;;;;;;;19.50;55.10;;;;;;5005526;28;19920;-67
2022/04/24 04:38:02;;;;;;;;;;;19.50;55.20;;;;;;5005969;28;20339;-68
2022/04/24 04:40:27;;;;;;;;;;;19.50;55.10;;;;;;5005763;28;19925;-68
2022/04/24 04:42:52;;;;;;;;;;;19.50;55.10;;;;;;5005974;28;19910;-68
2022/04/24 04:45:18;;;;;;;;;;;19.50;55.00;;;;;;5005954;28;20404;-68
2022/04/24 04:47:44;;;;;;;;;;;19.50;55.00;;;;;;4987775;28;19910;-68
2022/04/24 04:50:09;;;;;;;;;;;19.50;55.00;;;;;;4977677;28;20008;-63
2022/04/24 04:52:35;;;;;;;;;;;19.50;55.00;;;;;;4999512;28;20400;-66
2022/04/24 04:55:00;;;;;;;;;;;19.50;55.00;;;;;;5006377;28;19966;-64
2022/04/24 04:57:26;;;;;;;;;;;19.50;55.00;;;;;;4996512;28;19910;-64
2022/04/24 04:59:51;;;;;;;;;;;19.50;55.00;;;;;;5005544;28;19917;-72
2022/04/24 05:02:17;;;;;;;;;;;19.50;54.90;;;;;;5006715;28;19917;-68
2022/04/24 05:04:45;;;;;;;;;;;19.50;55.00;;;;;;5005733;28;19971;-65
2022/04/24 05:07:11;;;;;;;;;;;19.50;55.00;;;;;;5005847;28;19953;-66
2022/04/24 05:09:36;;;;;;;;;;;19.50;55.00;;;;;;5005990;28;20277;-65
2022/04/24 05:12:02;;;;;;;;;;;19.50;55.00;;;;;;5004404;28;19921;-68
2022/04/24 05:14:28;;;;;;;;;;;19.50;55.00;;;;;;5006225;28;19992;-68
2022/04/24 05:16:54;;;;;;;;;;;19.50;55.10;;;;;;5005183;28;19913;-67
2022/04/24 05:19:19;;;;;;;;;;;19.50;55.10;;;;;;5003872;28;19913;-64
2022/04/24 05:21:45;;;;;;;;;;;19.50;55.10;;;;;;4988098;28;19910;-65
2022/04/24 05:24:10;;;;;;;;;;;19.50;55.10;;;;;;5005767;28;19941;-66
2022/04/24 05:26:36;;;;;;;;;;;19.50;55.10;;;;;;5004807;28;19917;-66
2022/04/24 05:29:01;;;;;;;;;;;19.50;55.10;;;;;;5004525;28;20435;-65
2022/04/24 05:31:29;;;;;;;;;;;19.50;55.10;;;;;;5005610;28;19920;-68
2022/04/24 05:33:55;;;;;;;;;;;19.50;55.10;;;;;;4984376;28;20347;-67
2022/04/24 05:36:21;;;;;;;;;;;19.50;55.10;;;;;;4985109;28;19918;-66
2022/04/24 05:38:46;;;;;;;;;;;19.50;55.10;;;;;;5002543;28;19921;-65
2022/04/24 05:41:12;;;;;;;;;;;19.50;55.10;;;;;;5004916;28;20299;-64
2022/04/24 05:43:37;;;;;;;;;;;19.50;55.10;;;;;;5004911;28;19949;-69
2022/04/24 05:46:03;;;;;;;;;;;19.50;55.10;;;;;;5004348;28;19917;-69
2022/04/24 05:48:28;;;;;;;;;;;19.50;55.10;;;;;;5004272;28;19917;-64
2022/04/24 05:50:54;;;;;;;;;;;19.50;55.10;;;;;;5004508;28;19917;-69
2022/04/24 05:53:20;;;;;;;;;;;19.60;55.10;;;;;;5004756;28;19910;-68
2022/04/24 05:55:45;;;;;;;;;;;19.60;55.00;;;;;;4986800;28;19917;-68
2022/04/24 05:58:10;;;;;;;;;;;19.70;54.80;;;;;;5004646;28;19914;-72
2022/04/24 06:00:36;;;;;;;;;;;19.70;54.70;;;;;;4996787;28;20459;-68
2022/04/24 06:03:02;;;;;;;;;;;19.80;54.60;;;;;;5004957;28;20194;-67
2022/04/24 06:05:27;;;;;;;;;;;19.80;54.50;;;;;;5004920;28;19967;-67
2022/04/24 06:07:53;;;;;;;;;;;19.80;54.50;;;;;;4995863;28;20028;-69
2022/04/24 06:10:19;;;;;;;;;;;19.90;54.50;;;;;;4988065;28;19956;-65
2022/04/24 06:12:45;;;;;;;;;;;19.90;54.50;;;;;;4995172;28;20331;-66
2022/04/24 06:15:15;;;;;;;;;;;19.90;54.60;;;;;;4987023;28;20649;-66
2022/04/24 06:17:41;;;;;;;;;;;19.90;54.70;;;;;;4977090;28;20028;-67
2022/04/24 06:20:06;;;;;;;;;;;19.90;54.80;;;;;;4969789;28;20448;-66
2022/04/24 06:22:40;;;;;;;;;;;19.90;54.90;;;;;;4986980;28;19914;-66
2022/04/24 06:25:06;;;;;;;;;;;20.00;55.00;;;;;;5003736;28;20631;-66
2022/04/24 06:27:31;;;;;;;;;;;20.00;55.20;;;;;;5003184;28;19967;-67
2022/04/24 06:29:58;;;;;;;;;;;19.90;55.20;;;;;;4984476;28;20439;-66
2022/04/24 06:32:28;;;;;;;;;;;19.90;55.20;;;;;;4994037;28;20016;-66
2022/04/24 06:34:53;;;;;;;;;;;19.90;55.20;;;;;;5016750;28;19920;-66
2022/04/24 06:37:19;;;;;;;;;;;19.90;55.10;;;;;;5005396;28;19914;-66
2022/04/24 06:39:44;;;;;;;;;;;19.80;55.00;;;;;;4991926;28;19921;-69
2022/04/24 06:42:10;;;;;;;;;;;19.80;55.00;;;;;;5008492;28;19916;-67
2022/04/24 06:44:35;;;;;;;;;;;19.80;55.00;;;;;;5003494;28;20554;-67
2022/04/24 06:47:01;;;;;;;;;;;19.80;55.00;;;;;;5007801;28;19968;-67
2022/04/24 06:49:26;;;;;;;;;;;19.80;55.00;;;;;;5007544;28;19914;-68
2022/04/24 06:51:52;;;;;;;;;;;19.80;55.00;;;;;;4993419;28;19944;-67
2022/04/24 06:54:17;;;;;;;;;;;19.80;55.00;;;;;;5008092;28;19913;-68
2022/04/24 06:56:43;;;;;;;;;;;19.80;55.00;;;;;;5007076;28;19917;-69
2022/04/24 06:59:08;;;;;;;;;;;19.80;55.00;;;;;;5007636;28;19920;-66
2022/04/24 07:01:33;;;;;;;;;;;19.70;55.00;;;;;;4973967;28;19920;-66
2022/04/24 07:03:59;;;;;;;;;;;19.80;56.40;;;;;;5008345;28;19909;-68
2022/04/24 07:06:24;;;;;;;;;;;19.90;56.70;;;;;;5011712;28;19925;-67
2022/04/24 07:08:50;;;;;;;;;;;19.90;56.50;;;;;;5008500;28;19917;-67
2022/04/24 07:11:15;;;;;;;;;;;20.00;56.40;;;;;;5007946;28;19964;-67
2022/04/24 07:13:41;;;;;;;;;;;20.10;56.20;;;;;;4990713;28;20381;-67
2022/04/24 07:16:06;;;;;;;;;;;20.10;56.20;;;;;;4999233;28;19913;-66
2022/04/24 07:18:32;;;;;;;;;;;20.10;55.90;;;;;;5017069;28;19925;-66
2022/04/24 07:20:58;;;;;;;;;;;20.10;55.70;;;;;;5007222;28;19924;-68
2022/04/24 07:23:23;;;;;;;;;;;20.10;55.50;;;;;;4989691;28;20391;-69
2022/04/24 07:25:49;;;;;;;;;;;20.10;55.30;;;;;;5008476;28;19918;-67
2022/04/24 07:28:15;;;;;;;;;;;20.10;55.20;;;;;;4988749;28;20336;-67
2022/04/24 07:30:40;;;;;;;;;;;20.10;55.10;;;;;;5006048;28;19914;-66
2022/04/24 07:33:05;;;;;;;;;;;20.10;55.00;;;;;;5007174;28;20376;-69
2022/04/24 07:35:32;;;;;;;;;;;20.10;54.80;;;;;;5008776;28;19996;-67
2022/04/24 07:37:57;;;;;;;;;;;20.10;54.70;;;;;;5007273;28;20487;-67
2022/04/24 07:40:23;;;;;;;;;;;20.00;54.60;;;;;;5007606;28;19917;-66
2022/04/24 07:42:49;;;;;;;;;;;20.00;54.50;;;;;;4988038;28;20387;-67
2022/04/24 07:45:21;;;;;;;;;;;20.00;54.40;;;;;;4999702;28;20020;-68
2022/04/24 07:47:47;;;;;;;;;;;20.00;54.40;;;;;;5008499;28;19956;-70
2022/04/24 07:50:13;;;;;;;;;;;19.90;54.30;;;;;;5005010;28;20639;-70
2022/04/24 07:52:38;;;;;;;;;;;19.90;54.20;;;;;;5005667;28;19992;-69
2022/04/24 07:55:04;;;;;;;;;;;19.90;54.30;;;;;;5010245;28;19928;-68
2022/04/24 07:57:29;;;;;;;;;;;19.90;54.40;;;;;;5006335;28;19931;-66
2022/04/24 07:59:55;;;;;;;;;;;19.90;54.50;;;;;;4976360;28;19922;-68
2022/04/24 08:02:20;;;;;;;;;;;19.90;54.80;;;;;;5007492;28;20081;-68
2022/04/24 08:04:46;;;;;;;;;;;19.90;55.00;;;;;;5002549;28;19924;-67
2022/04/24 08:07:11;;;;;;;;;;;19.90;55.50;;;;;;4989986;28;19949;-69
2022/04/24 08:09:37;;;;;;;;;;;19.80;55.60;;;;;;4990173;28;20420;-68
2022/04/24 08:12:02;;;;;;;;;;;19.80;55.60;;;;;;5006050;28;19969;-67
2022/04/24 08:14:28;;;;;;;;;;;19.80;55.50;;;;;;5005077;28;19921;-66
2022/04/24 08:16:53;;;;;;;;;;;19.80;55.40;;;;;;4988358;28;19917;-67
2022/04/24 08:19:21;;;;;;;;;;;19.90;55.40;;;;;;4987702;28;19931;-68
2022/04/24 08:21:46;;;;;;;;;;;19.90;55.40;;;;;;5006095;28;19909;-70
2022/04/24 08:24:12;;;;;;;;;;;19.80;55.30;;;;;;5004812;28;19922;-68
2022/04/24 08:26:37;;;;;;;;;;;19.90;55.40;;;;;;5004519;28;19972;-67
2022/04/24 08:29:02;;;;;;;;;;;19.90;55.40;;;;;;4971390;28;20435;-72
2022/04/24 08:31:28;;;;;;;;;;;19.90;55.40;;;;;;5005099;28;19909;-67
2022/04/24 08:33:57;;;;;;;;;;;19.80;55.40;;;;;;5004317;28;19921;-67
2022/04/24 08:36:25;;;;;;;;;;;19.80;55.40;;;;;;5005589;28;20329;-68
2022/04/24 08:38:51;;;;;;;;;;;19.80;55.50;;;;;;4987319;28;19914;-67
2022/04/24 08:41:21;;;;;;;;;;;19.80;55.40;;;;;;4998124;28;19971;-67
2022/04/24 08:43:46;;;;;;;;;;;19.70;55.00;;;;;;5004051;28;20411;-68
2022/04/24 08:46:11;;;;;;;;;;;19.70;54.70;;;;;;5005505;28;20032;-68
2022/04/24 08:48:37;;;;;;;;;;;19.70;54.40;;;;;;4986737;28;20190;-68
2022/04/24 08:51:05;;;;;;;;;;;19.70;54.10;;;;;;5006005;28;19916;-67
2022/04/24 08:53:30;;;;;;;;;;;19.70;53.80;;;;;;5004056;28;19914;-68
2022/04/24 08:55:56;;;;;;;;;;;19.70;53.50;;;;;;5004453;28;19945;-66
2022/04/24 08:58:21;;;;;;;;;;;19.70;53.80;;;;;;5004913;28;19964;-67
2022/04/24 09:00:47;;;;;;;;;;;19.60;54.20;;;;;;4974780;28;20020;-69
2022/04/24 09:03:12;;;;;;;;;;;19.60;55.30;;;;;;5005068;28;19920;-71
2022/04/24 09:05:38;;;;;;;;;;;19.60;54.60;;;;;;5001490;28;19921;-74
2022/04/24 09:08:07;;;;;;;;;;;19.70;54.60;;;;;;5005354;28;20447;-71
2022/04/24 09:10:33;;;;;;;;;;;19.60;54.60;;;;;;4986530;28;20313;-71
2022/04/24 09:12:59;;;;;;;;;;;19.70;54.50;;;;;;5003462;28;20438;-70
2022/04/24 09:15:25;;;;;;;;;;;19.70;54.50;;;;;;5004225;28;19921;-69
2022/04/24 09:17:58;;;;;;;;;;;19.80;55.90;;;;;;4991272;28;19920;-71
2022/04/24 09:20:24;;;;;;;;;;;19.90;55.70;;;;;;5004317;28;20194;-68
2022/04/24 09:22:49;;;;;;;;;;;20.10;55.50;;;;;;5004627;28;19914;-68
2022/04/24 09:25:15;;;;;;;;;;;20.20;55.00;;;;;;4986174;28;19920;-70
2022/04/24 09:27:40;;;;;;;;;;;20.30;54.80;;;;;;5003310;28;20335;-68
2022/04/24 09:30:10;;;;;;;;;;;20.40;54.60;;;;;;5003354;28;19918;-69
2022/04/24 09:32:45;;;;;;;;;;;20.40;54.60;;;;;;4989422;28;19948;-70
2022/04/24 09:35:10;;;;;;;;;;;20.50;55.10;;;;;;5005568;28;19996;-66
2022/04/24 09:37:39;;;;;;;;;;;20.50;54.50;;;;;;5000445;28;19924;-68
2022/04/24 09:40:05;;;;;;;;;;;20.50;54.60;;;;;;4999088;28;19945;-67
2022/04/24 09:42:30;;;;;;;;;;;20.60;54.70;;;;;;5005450;28;19917;-68
2022/04/24 09:44:56;;;;;;;;;;;20.60;54.80;;;;;;4994581;28;19959;-69
2022/04/24 09:47:25;;;;;;;;;;;20.60;54.70;;;;;;5005523;28;19956;-72
2022/04/24 09:49:50;;;;;;;;;;;20.70;54.70;;;;;;4987529;28;19909;-68
2022/04/24 09:52:19;;;;;;;;;;;20.70;54.50;;;;;;4995722;28;20539;-70
2022/04/24 09:54:45;;;;;;;;;;;20.80;54.40;;;;;;5004862;28;19915;-68
2022/04/24 09:57:12;;;;;;;;;;;20.80;54.60;;;;;;4994235;28;20249;-67
2022/04/24 09:59:38;;;;;;;;;;;20.90;54.80;;;;;;5003126;28;20419;-69
2022/04/24 10:02:04;;;;;;;;;;;20.90;54.90;;;;;;5004382;28;19918;-68
2022/04/24 10:04:30;;;;;;;;;;;20.90;55.00;;;;;;5004603;28;20436;-69
2022/04/24 10:06:57;;;;;;;;;;;20.90;54.90;;;;;;4991702;28;20279;-68
2022/04/24 10:09:22;;;;;;;;;;;21.00;54.90;;;;;;5004083;28;19997;-70
2022/04/24 10:11:47;;;;;;;;;;;21.00;55.10;;;;;;4999353;28;20020;-70
2022/04/24 10:14:14;;;;;;;;;;;21.00;55.20;;;;;;4990491;28;19913;-70
2022/04/24 10:16:47;;;;;;;;;;;21.00;55.40;;;;;;4990970;28;19913;-68
2022/04/24 10:19:17;;;;;;;;;;;21.00;55.60;;;;;;5006937;28;19924;-68
2022/04/24 10:21:57;;;;;;;;;;;21.00;55.70;;;;;;5007281;28;19920;-69
2022/04/24 10:24:22;;;;;;;;;;;21.00;55.80;;;;;;4990707;28;20265;-68
2022/04/24 10:26:50;;;;;;;;;;;21.00;55.80;;;;;;5008818;28;19920;-69
2022/04/24 10:29:16;;;;;;;;;;;21.00;56.00;;;;;;5006549;28;19910;-70
2022/04/24 10:31:45;;;;;;;;;;;21.00;56.00;;;;;;5006882;28;19918;-69
2022/04/24 10:34:11;;;;;;;;;;;21.00;56.20;;;;;;4990976;28;19910;-71
2022/04/24 10:36:36;;;;;;;;;;;21.00;56.30;;;;;;5008661;28;19918;-69
2022/04/24 10:39:03;;;;;;;;;;;21.00;56.50;;;;;;5007327;28;19917;-69
2022/04/24 10:41:29;;;;;;;;;;;21.00;57.00;;;;;;5006780;28;19921;-69
2022/04/24 10:43:58;;;;;;;;;;;20.90;57.30;;;;;;4990367;28;19920;-71
2022/04/24 10:46:26;;;;;;;;;;;21.00;57.70;;;;;;4991774;28;19913;-70
2022/04/24 10:48:51;;;;;;;;;;;20.90;58.00;;;;;;5007005;28;19964;-70
2022/04/24 10:51:29;;;;;;;;;;;21.00;58.90;;;;;;5005534;28;20003;-71
2022/04/24 10:53:56;;;;;;;;;;;21.00;60.20;;;;;;5007941;28;20004;-71
2022/04/24 10:56:21;;;;;;;;;;;21.00;60.70;;;;;;4972926;28;19957;-68
2022/04/24 10:58:49;;;;;;;;;;;21.00;61.40;;;;;;5006908;28;19920;-69
2022/04/24 11:01:15;;;;;;;;;;;21.00;62.90;;;;;;4974415;28;20427;-70
2022/04/24 11:03:41;;;;;;;;;;;21.10;63.50;;;;;;5002010;28;20311;-71
2022/04/24 11:06:23;;;;;;;;;;;21.10;65.00;;;;;;5006467;28;19920;-70
2022/04/24 11:08:49;;;;;;;;;;;21.10;65.20;;;;;;5006922;28;20020;-69
2022/04/24 11:11:14;;;;;;;;;;;21.10;65.40;;;;;;4990084;28;20016;-69
2022/04/24 11:13:40;;;;;;;;;;;21.00;65.50;;;;;;5000361;28;19936;-69
2022/04/24 11:16:06;;;;;;;;;;;20.90;64.90;;;;;;5008092;28;20407;-72
2022/04/24 11:18:32;;;;;;;;;;;20.90;64.50;;;;;;4998282;28;19991;-69
2022/04/24 11:21:03;;;;;;;;;;;20.80;63.80;;;;;;5006516;28;19917;-70
2022/04/24 11:23:32;;;;;;;;;;;20.80;63.40;;;;;;4995914;28;19914;-71
2022/04/24 11:25:58;;;;;;;;;;;20.70;62.90;;;;;;5006175;28;20452;-70
2022/04/24 11:28:39;;;;;;;;;;;20.70;62.50;;;;;;5000075;28;19968;-70
2022/04/24 11:31:11;;;;;;;;;;;20.60;62.20;;;;;;4989877;28;21407;-70
2022/04/24 11:33:37;;;;;;;;;;;20.60;61.90;;;;;;5007225;28;19993;-74
2022/04/24 11:36:04;;;;;;;;;;;20.50;61.50;;;;;;5005674;28;20001;-70
2022/04/24 11:38:30;;;;;;;;;;;20.60;61.90;;;;;;5000193;28;19967;-70
2022/04/24 11:40:56;;;;;;;;;;;20.50;61.80;;;;;;4989904;28;19918;-70
2022/04/24 11:43:21;;;;;;;;;;;20.60;61.70;;;;;;5007075;28;19909;-71
2022/04/24 11:51:18;;;;;;;;;;;20.60;61.10;;;;;;4992723;28;19923;-71
2022/04/24 11:53:43;;;;;;;;;;;20.50;60.90;;;;;;5008510;28;19910;-68
2022/04/24 11:56:10;;;;;;;;;;;20.50;60.90;;;;;;5007507;28;19916;-69
2022/04/24 11:58:36;;;;;;;;;;;20.60;61.90;;;;;;5006332;28;19921;-71
2022/04/24 12:01:02;;;;;;;;;;;20.60;62.30;;;;;;4988753;28;19914;-71
2022/04/24 12:03:31;;;;;;;;;;;20.50;62.70;;;;;;4990170;28;19975;-72
2022/04/24 12:05:57;;;;;;;;;;;20.60;62.90;;;;;;5007176;28;20004;-73
2022/04/24 12:08:23;;;;;;;;;;;20.60;63.00;;;;;;5006276;28;19917;-71
2022/04/24 12:10:48;;;;;;;;;;;20.60;63.10;;;;;;4988582;28;19925;-70
2022/04/24 12:13:20;;;;;;;;;;;20.60;62.90;;;;;;4989684;28;19909;-72
2022/04/24 12:15:49;;;;;;;;;;;20.60;62.80;;;;;;5005209;28;19914;-70
2022/04/24 12:18:19;;;;;;;;;;;20.60;62.70;;;;;;5004808;28;19991;-70
2022/04/24 12:20:45;;;;;;;;;;;20.60;62.30;;;;;;4988468;28;19913;-70
2022/04/24 12:23:11;;;;;;;;;;;20.60;62.20;;;;;;5006065;28;20453;-71
2022/04/24 12:25:49;;;;;;;;;;;20.60;62.00;;;;;;5003577;28;19921;-70
2022/04/24 12:28:26;;;;;;;;;;;20.60;62.00;;;;;;5005939;28;20004;-71
2022/04/24 12:30:51;;;;;;;;;;;20.50;62.00;;;;;;4968872;28;19949;-70
2022/04/24 12:33:17;;;;;;;;;;;20.50;62.00;;;;;;4984565;28;19991;-70
2022/04/24 12:35:42;;;;;;;;;;;20.60;62.10;;;;;;5003569;28;20013;-70
2022/04/24 12:38:17;;;;;;;;;;;20.60;62.00;;;;;;4988862;28;19921;-72
2022/04/24 12:40:57;;;;;;;;;;;20.60;61.90;;;;;;4989528;28;20852;-71
2022/04/24 12:43:26;;;;;;;;;;;20.60;61.90;;;;;;5005998;28;19914;-71
2022/04/24 12:45:52;;;;;;;;;;;20.60;61.80;;;;;;5005317;28;19917;-72
2022/04/24 12:48:17;;;;;;;;;;;20.60;61.70;;;;;;5005961;28;19923;-70
2022/04/24 12:50:43;;;;;;;;;;;20.60;61.60;;;;;;4991403;28;19916;-71
2022/04/24 12:53:08;;;;;;;;;;;20.60;61.60;;;;;;5007670;28;20380;-70
2022/04/24 12:55:34;;;;;;;;;;;20.60;61.40;;;;;;5007257;28;19910;-69
2022/04/24 12:57:59;;;;;;;;;;;20.50;61.30;;;;;;5004262;28;20005;-69
2022/04/24 13:00:25;;;;;;;;;;;20.60;61.40;;;;;;5005311;28;19918;-70
2022/04/24 13:02:50;;;;;;;;;;;20.50;61.20;;;;;;5004558;28;19917;-70
2022/04/24 13:05:16;;;;;;;;;;;20.60;61.80;;;;;;4995744;28;20363;-70
2022/04/24 13:07:42;;;;;;;;;;;20.60;61.20;;;;;;4988295;28;19909;-71
2022/04/24 13:10:08;;;;;;;;;;;20.60;61.10;;;;;;5005078;28;19913;-70
2022/04/24 13:12:34;;;;;;;;;;;20.50;61.00;;;;;;5005030;28;19921;-72
2022/04/24 13:14:59;;;;;;;;;;;20.50;61.00;;;;;;4991903;28;19909;-71
2022/04/24 13:20:09;;;;;;;;;;;20.60;60.90;;;;;;5004596;28;19939;-70
2022/04/24 13:22:35;;;;;;;;;;;20.60;60.90;;;;;;5005097;28;19921;-71
2022/04/24 13:25:00;;;;;;;;;;;20.50;60.80;;;;;;5003998;28;20371;-71
2022/04/24 13:27:26;;;;;;;;;;;20.50;60.80;;;;;;5005520;28;19925;-71
2022/04/24 13:29:51;;;;;;;;;;;20.50;60.90;;;;;;5004701;28;19971;-72
2022/04/24 13:32:17;;;;;;;;;;;20.50;60.90;;;;;;5005116;28;20379;-69
2022/04/24 13:34:42;;;;;;;;;;;20.60;60.80;;;;;;5005155;28;19914;-71
2022/04/24 13:39:52;;;;;;;;;;;20.70;60.80;;;;;;5003878;28;20338;-73
2022/04/24 13:42:17;;;;;;;;;;;20.70;60.80;;;;;;5004698;28;19917;-69
2022/04/24 13:44:43;;;;;;;;;;;20.70;60.70;;;;;;4987636;28;19936;-71
2022/04/24 13:47:09;;;;;;;;;;;20.70;60.70;;;;;;5002431;28;20403;-71
2022/04/24 13:49:35;;;;;;;;;;;20.70;60.70;;;;;;4985344;28;19913;-71
2022/04/24 13:52:01;;;;;;;;;;;20.60;60.60;;;;;;4990925;28;20020;-71
2022/04/24 13:54:27;;;;;;;;;;;20.70;61.40;;;;;;4986279;28;19918;-71
2022/04/24 13:56:56;;;;;;;;;;;20.70;61.80;;;;;;4986119;28;19910;-71
2022/04/24 13:59:24;;;;;;;;;;;20.70;62.00;;;;;;4970984;28;19910;-72
2022/04/24 14:01:50;;;;;;;;;;;20.70;62.00;;;;;;4999397;28;19913;-71
2022/04/24 14:04:16;;;;;;;;;;;20.70;62.00;;;;;;5002981;28;19920;-71
2022/04/24 14:06:42;;;;;;;;;;;20.70;62.10;;;;;;4991603;28;19965;-72
2022/04/24 14:09:08;;;;;;;;;;;20.70;62.00;;;;;;4986585;28;19920;-71
2022/04/24 14:11:33;;;;;;;;;;;20.70;61.90;;;;;;4995927;28;19921;-71
2022/04/24 14:13:59;;;;;;;;;;;20.70;61.90;;;;;;5004430;28;20134;-71
2022/04/24 14:16:24;;;;;;;;;;;20.70;61.80;;;;;;4995743;28;20322;-71
2022/04/24 14:18:50;;;;;;;;;;;20.70;61.70;;;;;;4970513;28;19914;-70
2022/04/24 14:21:15;;;;;;;;;;;20.70;61.70;;;;;;5004145;28;19922;-70